sensor_id;sensor_type;location;lat;lon;timestamp;pressure;altitude;pressure_sealevel;temperature;humidity
2711;BME280;20721;47.402;8.550;2023-07-09T00:00:23;96524;;;23.57;50.62
2711;BME280;20721;47.402;8.550;2023-07-09T00:02:24;96529;;;23.64;50.39
2711;BME280;20721;47.402;8.550;2023-07-09T00:04:24;96522;;;23.61;50.32
2711;BME280;20721;47.402;8.550;2023-07-09T00:06:23;96517;;;23.56;50.43
2711;BME280;20721;47.402;8.550;2023-07-09T00:10:23;96518;;;23.55;50.64
2711;BME280;20721;47.402;8.550;2023-07-09T00:12:24;96517;;;23.57;50.81
2711;BME280;20721;47.402;8.550;2023-07-09T00:14:23;96521;;;23.57;50.83
2711;BME280;20721;47.402;8.550;2023-07-09T00:16:24;96523;;;23.54;50.96
2711;BME280;20721;47.402;8.550;2023-07-09T00:18:23;96526;;;23.52;50.64
2711;BME280;20721;47.402;8.550;2023-07-09T00:20:23;96526;;;23.47;50.92
2711;BME280;20721;47.402;8.550;2023-07-09T00:22:23;96530;;;23.44;51.07
2711;BME280;20721;47.402;8.550;2023-07-09T00:24:24;96533;;;23.43;51.12
2711;BME280;20721;47.402;8.550;2023-07-09T00:27:25;96534;;;23.40;51.25
2711;BME280;20721;47.402;8.550;2023-07-09T00:29:23;96533;;;23.31;51.58
2711;BME280;20721;47.402;8.550;2023-07-09T00:34:24;96528;;;23.30;51.59
2711;BME280;20721;47.402;8.550;2023-07-09T00:36:27;96530;;;23.34;51.49
2711;BME280;20721;47.402;8.550;2023-07-09T00:38:24;96532;;;23.34;51.39
2711;BME280;20721;47.402;8.550;2023-07-09T00:40:25;96532;;;23.29;51.42
2711;BME280;20721;47.402;8.550;2023-07-09T00:42:24;96536;;;23.22;51.76
2711;BME280;20721;47.402;8.550;2023-07-09T00:48:24;96536;;;22.95;52.47
2711;BME280;20721;47.402;8.550;2023-07-09T00:53:25;96532;;;22.96;52.86
2711;BME280;20721;47.402;8.550;2023-07-09T00:55:25;96529;;;23.01;52.89
2711;BME280;20721;47.402;8.550;2023-07-09T00:57:24;96533;;;22.95;52.93
2711;BME280;20721;47.402;8.550;2023-07-09T00:59:24;96534;;;22.98;52.99
2711;BME280;20721;47.402;8.550;2023-07-09T01:01:24;96536;;;23.03;52.76
2711;BME280;20721;47.402;8.550;2023-07-09T01:03:29;96536;;;23.09;52.82
2711;BME280;20721;47.402;8.550;2023-07-09T01:05:24;96536;;;23.12;52.67
2711;BME280;20721;47.402;8.550;2023-07-09T01:08:24;96541;;;23.15;52.90
2711;BME280;20721;47.402;8.550;2023-07-09T01:10:24;96537;;;23.21;52.92
2711;BME280;20721;47.402;8.550;2023-07-09T01:12:24;96538;;;23.25;52.82
2711;BME280;20721;47.402;8.550;2023-07-09T01:14:25;96543;;;23.25;52.96
2711;BME280;20721;47.402;8.550;2023-07-09T01:16:25;96542;;;23.02;51.76
2711;BME280;20721;47.402;8.550;2023-07-09T01:18:24;96539;;;22.92;51.88
2711;BME280;20721;47.402;8.550;2023-07-09T01:20:24;96542;;;22.86;52.00
2711;BME280;20721;47.402;8.550;2023-07-09T01:22:24;96540;;;22.81;52.37
2711;BME280;20721;47.402;8.550;2023-07-09T01:25:24;96545;;;22.79;52.53
2711;BME280;20721;47.402;8.550;2023-07-09T01:27:25;96550;;;22.69;52.82
2711;BME280;20721;47.402;8.550;2023-07-09T01:29:29;96552;;;22.63;53.09
2711;BME280;20721;47.402;8.550;2023-07-09T01:31:24;96555;;;22.44;53.83
2711;BME280;20721;47.402;8.550;2023-07-09T01:33:24;96557;;;22.33;54.12
2711;BME280;20721;47.402;8.550;2023-07-09T01:35:24;96555;;;22.30;54.23
2711;BME280;20721;47.402;8.550;2023-07-09T01:37:25;96554;;;22.29;54.41
2711;BME280;20721;47.402;8.550;2023-07-09T01:39:25;96555;;;22.28;54.68
2711;BME280;20721;47.402;8.550;2023-07-09T01:43:25;96554;;;22.29;54.89
2711;BME280;20721;47.402;8.550;2023-07-09T01:46:24;96555;;;22.28;54.77
2711;BME280;20721;47.402;8.550;2023-07-09T01:48:24;96558;;;22.29;54.91
2711;BME280;20721;47.402;8.550;2023-07-09T01:51:25;96558;;;22.18;55.11
2711;BME280;20721;47.402;8.550;2023-07-09T01:53:24;96558;;;22.14;55.28
2711;BME280;20721;47.402;8.550;2023-07-09T01:55:24;96560;;;22.17;55.14
2711;BME280;20721;47.402;8.550;2023-07-09T01:57:26;96560;;;22.23;55.20
2711;BME280;20721;47.402;8.550;2023-07-09T01:59:24;96560;;;22.28;54.93
2711;BME280;20721;47.402;8.550;2023-07-09T02:02:25;96560;;;22.31;55.00
2711;BME280;20721;47.402;8.550;2023-07-09T02:04:27;96558;;;22.33;54.99
2711;BME280;20721;47.402;8.550;2023-07-09T02:06:24;96558;;;22.35;54.80
2711;BME280;20721;47.402;8.550;2023-07-09T02:08:24;96559;;;22.37;54.90
2711;BME280;20721;47.402;8.550;2023-07-09T02:10:24;96561;;;22.37;55.07
2711;BME280;20721;47.402;8.550;2023-07-09T02:12:24;96561;;;22.35;55.02
2711;BME280;20721;47.402;8.550;2023-07-09T02:14:24;96562;;;22.36;54.91
2711;BME280;20721;47.402;8.550;2023-07-09T02:16:24;96560;;;22.31;54.94
2711;BME280;20721;47.402;8.550;2023-07-09T02:18:24;96558;;;22.32;54.71
2711;BME280;20721;47.402;8.550;2023-07-09T02:21:24;96559;;;22.32;54.63
2711;BME280;20721;47.402;8.550;2023-07-09T02:23:26;96556;;;22.34;54.81
2711;BME280;20721;47.402;8.550;2023-07-09T02:25:24;96560;;;22.37;54.92
2711;BME280;20721;47.402;8.550;2023-07-09T02:27:24;96562;;;22.36;55.25
2711;BME280;20721;47.402;8.550;2023-07-09T02:29:24;96557;;;22.38;55.37
2711;BME280;20721;47.402;8.550;2023-07-09T02:33:24;96555;;;22.41;55.32
2711;BME280;20721;47.402;8.550;2023-07-09T02:36:24;96554;;;22.42;55.44
2711;BME280;20721;47.402;8.550;2023-07-09T02:38:24;96555;;;22.40;55.41
2711;BME280;20721;47.402;8.550;2023-07-09T02:41:24;96555;;;22.38;55.34
2711;BME280;20721;47.402;8.550;2023-07-09T02:43:24;96557;;;22.26;54.91
2711;BME280;20721;47.402;8.550;2023-07-09T02:45:24;96559;;;22.14;54.98
2711;BME280;20721;47.402;8.550;2023-07-09T02:47:24;96559;;;22.04;55.07
2711;BME280;20721;47.402;8.550;2023-07-09T02:49:24;96560;;;22.00;55.27
2711;BME280;20721;47.402;8.550;2023-07-09T02:51:26;96566;;;21.97;55.47
2711;BME280;20721;47.402;8.550;2023-07-09T02:56:24;96565;;;21.99;55.57
2711;BME280;20721;47.402;8.550;2023-07-09T02:58:24;96561;;;21.95;55.66
2711;BME280;20721;47.402;8.550;2023-07-09T03:03:24;96572;;;21.94;55.81
2711;BME280;20721;47.402;8.550;2023-07-09T03:08:24;96574;;;21.92;55.90
2711;BME280;20721;47.402;8.550;2023-07-09T03:10:24;96574;;;21.91;55.96
2711;BME280;20721;47.402;8.550;2023-07-09T03:12:24;96574;;;21.90;55.99
2711;BME280;20721;47.402;8.550;2023-07-09T03:14:24;96574;;;21.86;56.01
2711;BME280;20721;47.402;8.550;2023-07-09T03:16:26;96579;;;21.81;56.14
2711;BME280;20721;47.402;8.550;2023-07-09T03:18:24;96578;;;21.74;56.25
2711;BME280;20721;47.402;8.550;2023-07-09T03:20:25;96579;;;21.71;56.30
2711;BME280;20721;47.402;8.550;2023-07-09T03:22:24;96581;;;21.71;56.38
2711;BME280;20721;47.402;8.550;2023-07-09T03:26:25;96583;;;21.74;56.22
2711;BME280;20721;47.402;8.550;2023-07-09T03:29:24;96583;;;21.73;56.15
2711;BME280;20721;47.402;8.550;2023-07-09T03:31:24;96585;;;21.66;56.28
2711;BME280;20721;47.402;8.550;2023-07-09T03:33:24;96589;;;21.65;56.53
2711;BME280;20721;47.402;8.550;2023-07-09T03:35:25;96589;;;21.64;56.48
2711;BME280;20721;47.402;8.550;2023-07-09T03:38:24;96593;;;21.68;56.65
2711;BME280;20721;47.402;8.550;2023-07-09T03:40:24;96596;;;21.71;56.77
2711;BME280;20721;47.402;8.550;2023-07-09T03:43:24;96598;;;21.70;56.69
2711;BME280;20721;47.402;8.550;2023-07-09T03:46:24;96604;;;21.67;56.76
2711;BME280;20721;47.402;8.550;2023-07-09T03:48:24;96598;;;21.65;56.77
2711;BME280;20721;47.402;8.550;2023-07-09T03:50:24;96599;;;21.67;56.84
2711;BME280;20721;47.402;8.550;2023-07-09T03:54:27;96602;;;21.66;56.34
2711;BME280;20721;47.402;8.550;2023-07-09T03:56:24;96599;;;21.49;56.37
2711;BME280;20721;47.402;8.550;2023-07-09T03:58:25;96598;;;21.43;56.64
2711;BME280;20721;47.402;8.550;2023-07-09T04:01:24;96594;;;21.39;56.82
2711;BME280;20721;47.402;8.550;2023-07-09T04:03:24;96593;;;21.32;57.09
2711;BME280;20721;47.402;8.550;2023-07-09T04:06:24;96596;;;21.32;57.22
2711;BME280;20721;47.402;8.550;2023-07-09T04:08:25;96598;;;21.40;57.11
2711;BME280;20721;47.402;8.550;2023-07-09T04:10:25;96599;;;21.47;57.13
2711;BME280;20721;47.402;8.550;2023-07-09T04:12:24;96599;;;21.51;57.00
2711;BME280;20721;47.402;8.550;2023-07-09T04:15:24;96602;;;21.54;56.97
2711;BME280;20721;47.402;8.550;2023-07-09T04:18:24;96597;;;21.54;57.05
2711;BME280;20721;47.402;8.550;2023-07-09T04:22:24;96601;;;21.58;57.11
2711;BME280;20721;47.402;8.550;2023-07-09T04:24:24;96603;;;21.61;57.11
2711;BME280;20721;47.402;8.550;2023-07-09T04:26:24;96603;;;21.66;57.16
2711;BME280;20721;47.402;8.550;2023-07-09T04:28:24;96609;;;21.70;57.00
2711;BME280;20721;47.402;8.550;2023-07-09T04:30:24;96605;;;21.72;56.92
2711;BME280;20721;47.402;8.550;2023-07-09T04:32:24;96612;;;21.71;56.99
2711;BME280;20721;47.402;8.550;2023-07-09T04:34:24;96613;;;21.64;57.18
2711;BME280;20721;47.402;8.550;2023-07-09T04:36:26;96616;;;21.60;57.34
2711;BME280;20721;47.402;8.550;2023-07-09T04:38:24;96611;;;21.57;57.48
2711;BME280;20721;47.402;8.550;2023-07-09T04:40:24;96608;;;21.58;57.70
2711;BME280;20721;47.402;8.550;2023-07-09T04:42:24;96614;;;21.60;57.78
2711;BME280;20721;47.402;8.550;2023-07-09T04:44:24;96614;;;21.63;57.78
2711;BME280;20721;47.402;8.550;2023-07-09T04:46:24;96615;;;21.67;57.83
2711;BME280;20721;47.402;8.550;2023-07-09T04:49:24;96618;;;21.70;58.01
2711;BME280;20721;47.402;8.550;2023-07-09T04:51:24;96620;;;21.73;58.09
2711;BME280;20721;47.402;8.550;2023-07-09T04:53:24;96620;;;21.79;57.95
2711;BME280;20721;47.402;8.550;2023-07-09T04:55:24;96623;;;21.89;57.79
2711;BME280;20721;47.402;8.550;2023-07-09T04:57:25;96619;;;21.94;57.66
2711;BME280;20721;47.402;8.550;2023-07-09T04:59:24;96619;;;22.01;57.33
2711;BME280;20721;47.402;8.550;2023-07-09T05:01:24;96619;;;22.05;57.37
2711;BME280;20721;47.402;8.550;2023-07-09T05:03:24;96622;;;22.01;57.53
2711;BME280;20721;47.402;8.550;2023-07-09T05:05:24;96618;;;22.06;57.42
2711;BME280;20721;47.402;8.550;2023-07-09T05:07:24;96617;;;22.11;57.32
2711;BME280;20721;47.402;8.550;2023-07-09T05:09:24;96614;;;22.20;57.19
2711;BME280;20721;47.402;8.550;2023-07-09T05:11:24;96613;;;22.26;56.89
2711;BME280;20721;47.402;8.550;2023-07-09T05:13:24;96613;;;22.34;56.79
2711;BME280;20721;47.402;8.550;2023-07-09T05:15:25;96615;;;22.40;56.46
2711;BME280;20721;47.402;8.550;2023-07-09T05:18:24;96619;;;22.40;56.49
2711;BME280;20721;47.402;8.550;2023-07-09T05:20:24;96620;;;22.46;56.42
2711;BME280;20721;47.402;8.550;2023-07-09T05:22:24;96618;;;22.57;56.17
2711;BME280;20721;47.402;8.550;2023-07-09T05:24:28;96622;;;22.70;55.63
2711;BME280;20721;47.402;8.550;2023-07-09T05:26:24;96618;;;22.82;55.42
2711;BME280;20721;47.402;8.550;2023-07-09T05:28:24;96620;;;22.93;55.00
2711;BME280;20721;47.402;8.550;2023-07-09T05:30:25;96620;;;23.03;54.71
2711;BME280;20721;47.402;8.550;2023-07-09T05:32:24;96617;;;23.13;54.46
2711;BME280;20721;47.402;8.550;2023-07-09T05:34:24;96619;;;23.21;54.22
2711;BME280;20721;47.402;8.550;2023-07-09T05:36:25;96618;;;23.32;54.01
2711;BME280;20721;47.402;8.550;2023-07-09T05:38:24;96618;;;23.44;53.87
2711;BME280;20721;47.402;8.550;2023-07-09T05:40:24;96615;;;23.51;53.78
2711;BME280;20721;47.402;8.550;2023-07-09T05:42:24;96618;;;23.63;53.50
2711;BME280;20721;47.402;8.550;2023-07-09T05:44:24;96614;;;23.74;53.19
2711;BME280;20721;47.402;8.550;2023-07-09T05:46:24;96614;;;23.76;53.17
2711;BME280;20721;47.402;8.550;2023-07-09T05:48:24;96616;;;23.81;53.03
2711;BME280;20721;47.402;8.550;2023-07-09T05:50:25;96618;;;23.93;52.72
2711;BME280;20721;47.402;8.550;2023-07-09T05:52:24;96617;;;24.01;52.46
2711;BME280;20721;47.402;8.550;2023-07-09T05:54:24;96615;;;24.07;52.53
2711;BME280;20721;47.402;8.550;2023-07-09T05:56:24;96617;;;24.15;52.50
2711;BME280;20721;47.402;8.550;2023-07-09T05:58:24;96611;;;24.34;52.29
2711;BME280;20721;47.402;8.550;2023-07-09T06:00:24;96614;;;24.55;51.73
2711;BME280;20721;47.402;8.550;2023-07-09T06:02:25;96616;;;24.74;51.40
2711;BME280;20721;47.402;8.550;2023-07-09T06:04:26;96616;;;24.91;51.10
2711;BME280;20721;47.402;8.550;2023-07-09T06:06:26;96621;;;25.04;50.63
2711;BME280;20721;47.402;8.550;2023-07-09T06:08:26;96618;;;25.16;50.38
2711;BME280;20721;47.402;8.550;2023-07-09T06:10:24;96619;;;25.27;49.95
2711;BME280;20721;47.402;8.550;2023-07-09T06:12:25;96619;;;25.36;49.56
2711;BME280;20721;47.402;8.550;2023-07-09T06:14:25;96619;;;25.35;49.53
2711;BME280;20721;47.402;8.550;2023-07-09T06:16:24;96619;;;25.34;49.28
2711;BME280;20721;47.402;8.550;2023-07-09T06:18:25;96615;;;25.39;49.19
2711;BME280;20721;47.402;8.550;2023-07-09T06:20:24;96614;;;25.52;49.15
2711;BME280;20721;47.402;8.550;2023-07-09T06:22:24;96617;;;25.75;49.12
2711;BME280;20721;47.402;8.550;2023-07-09T06:24:24;96617;;;25.94;48.15
2711;BME280;20721;47.402;8.550;2023-07-09T06:26:24;96612;;;26.09;48.01
2711;BME280;20721;47.402;8.550;2023-07-09T06:28:26;96619;;;26.24;47.54
2711;BME280;20721;47.402;8.550;2023-07-09T06:30:24;96620;;;26.38;47.10
2711;BME280;20721;47.402;8.550;2023-07-09T06:32:26;96620;;;26.47;46.77
2711;BME280;20721;47.402;8.550;2023-07-09T06:34:24;96623;;;26.51;46.83
2711;BME280;20721;47.402;8.550;2023-07-09T06:36:25;96623;;;26.57;46.96
2711;BME280;20721;47.402;8.550;2023-07-09T06:38:25;96619;;;26.74;46.68
2711;BME280;20721;47.402;8.550;2023-07-09T06:40:24;96618;;;26.91;46.18
2711;BME280;20721;47.402;8.550;2023-07-09T06:42:24;96618;;;27.13;45.88
2711;BME280;20721;47.402;8.550;2023-07-09T06:44:26;96619;;;27.30;45.62
2711;BME280;20721;47.402;8.550;2023-07-09T06:46:25;96617;;;27.44;44.97
2711;BME280;20721;47.402;8.550;2023-07-09T06:48:25;96621;;;27.62;44.64
2711;BME280;20721;47.402;8.550;2023-07-09T06:50:24;96613;;;27.78;44.06
2711;BME280;20721;47.402;8.550;2023-07-09T06:52:24;96616;;;27.94;43.77
2711;BME280;20721;47.402;8.550;2023-07-09T06:54:24;96618;;;28.14;42.97
2711;BME280;20721;47.402;8.550;2023-07-09T06:56:24;96619;;;28.36;43.04
2711;BME280;20721;47.402;8.550;2023-07-09T06:58:26;96615;;;28.46;42.54
2711;BME280;20721;47.402;8.550;2023-07-09T07:00:25;96614;;;28.68;42.23
2711;BME280;20721;47.402;8.550;2023-07-09T07:02:25;96613;;;28.75;41.69
2711;BME280;20721;47.402;8.550;2023-07-09T07:04:25;96616;;;28.82;41.73
2711;BME280;20721;47.402;8.550;2023-07-09T07:06:24;96613;;;28.94;41.55
2711;BME280;20721;47.402;8.550;2023-07-09T07:08:25;96613;;;29.11;41.79
2711;BME280;20721;47.402;8.550;2023-07-09T07:10:26;96614;;;29.26;40.71
2711;BME280;20721;47.402;8.550;2023-07-09T07:12:26;96613;;;29.37;40.68
2711;BME280;20721;47.402;8.550;2023-07-09T07:14:25;96608;;;29.40;40.31
2711;BME280;20721;47.402;8.550;2023-07-09T07:16:25;96609;;;29.33;40.29
2711;BME280;20721;47.402;8.550;2023-07-09T07:18:25;96602;;;29.34;40.22
2711;BME280;20721;47.402;8.550;2023-07-09T07:20:25;96604;;;29.49;40.54
2711;BME280;20721;47.402;8.550;2023-07-09T07:22:25;96598;;;29.62;40.28
2711;BME280;20721;47.402;8.550;2023-07-09T07:24:25;96596;;;29.82;39.98
2711;BME280;20721;47.402;8.550;2023-07-09T07:26:25;96593;;;30.02;39.68
2711;BME280;20721;47.402;8.550;2023-07-09T07:28:25;96590;;;30.20;39.26
2711;BME280;20721;47.402;8.550;2023-07-09T07:30:26;96595;;;30.30;38.89
2711;BME280;20721;47.402;8.550;2023-07-09T07:32:25;96594;;;30.47;38.99
2711;BME280;20721;47.402;8.550;2023-07-09T07:34:25;96589;;;30.58;38.39
2711;BME280;20721;47.402;8.550;2023-07-09T07:36:31;96585;;;30.73;38.11
2711;BME280;20721;47.402;8.550;2023-07-09T07:38:25;96586;;;30.86;38.10
2711;BME280;20721;47.402;8.550;2023-07-09T07:40:25;96580;;;31.03;37.57
2711;BME280;20721;47.402;8.550;2023-07-09T07:42:25;96581;;;31.21;37.44
2711;BME280;20721;47.402;8.550;2023-07-09T07:44:25;96576;;;31.35;36.86
2711;BME280;20721;47.402;8.550;2023-07-09T07:46:25;96577;;;31.56;36.49
2711;BME280;20721;47.402;8.550;2023-07-09T07:48:25;96579;;;31.71;36.28
2711;BME280;20721;47.402;8.550;2023-07-09T07:50:25;96578;;;31.85;36.05
2711;BME280;20721;47.402;8.550;2023-07-09T07:52:25;96581;;;32.02;35.27
2711;BME280;20721;47.402;8.550;2023-07-09T07:54:25;96578;;;32.14;35.08
2711;BME280;20721;47.402;8.550;2023-07-09T07:56:25;96572;;;32.31;34.56
2711;BME280;20721;47.402;8.550;2023-07-09T07:59:25;96573;;;32.34;33.19
2711;BME280;20721;47.402;8.550;2023-07-09T08:01:25;96575;;;32.46;33.27
2711;BME280;20721;47.402;8.550;2023-07-09T08:03:25;96570;;;32.57;32.84
2711;BME280;20721;47.402;8.550;2023-07-09T08:06:25;96571;;;32.60;32.35
2711;BME280;20721;47.402;8.550;2023-07-09T08:08:25;96571;;;32.59;31.91
2711;BME280;20721;47.402;8.550;2023-07-09T08:10:25;96569;;;32.41;31.84
2711;BME280;20721;47.402;8.550;2023-07-09T08:12:25;96570;;;32.11;32.04
2711;BME280;20721;47.402;8.550;2023-07-09T08:14:25;96571;;;32.10;31.98
2711;BME280;20721;47.402;8.550;2023-07-09T08:16:25;96572;;;32.00;32.30
2711;BME280;20721;47.402;8.550;2023-07-09T08:18:25;96564;;;32.16;32.17
2711;BME280;20721;47.402;8.550;2023-07-09T08:20:25;96563;;;32.17;32.19
2711;BME280;20721;47.402;8.550;2023-07-09T08:22:25;96568;;;32.05;31.83
2711;BME280;20721;47.402;8.550;2023-07-09T08:24:25;96566;;;31.88;32.31
2711;BME280;20721;47.402;8.550;2023-07-09T08:26:25;96561;;;31.39;32.33
2711;BME280;20721;47.402;8.550;2023-07-09T08:28:25;96562;;;31.57;33.13
2711;BME280;20721;47.402;8.550;2023-07-09T08:30:25;96561;;;31.80;32.33
2711;BME280;20721;47.402;8.550;2023-07-09T08:32:25;96568;;;32.00;32.36
2711;BME280;20721;47.402;8.550;2023-07-09T08:34:25;96567;;;32.10;31.70
2711;BME280;20721;47.402;8.550;2023-07-09T08:36:25;96572;;;31.90;31.59
2711;BME280;20721;47.402;8.550;2023-07-09T08:38:25;96570;;;31.68;32.03
2711;BME280;20721;47.402;8.550;2023-07-09T08:40:25;96574;;;31.77;32.71
2711;BME280;20721;47.402;8.550;2023-07-09T08:42:29;96572;;;31.80;32.61
2711;BME280;20721;47.402;8.550;2023-07-09T08:44:33;96570;;;32.12;32.46
2711;BME280;20721;47.402;8.550;2023-07-09T08:46:36;96568;;;32.54;32.39
2711;BME280;20721;47.402;8.550;2023-07-09T08:48:27;96571;;;33.03;31.80
2711;BME280;20721;47.402;8.550;2023-07-09T08:50:27;96574;;;33.36;30.93
2711;BME280;20721;47.402;8.550;2023-07-09T08:54:29;96573;;;33.83;30.62
2711;BME280;20721;47.402;8.550;2023-07-09T08:56:26;96570;;;33.98;30.31
2711;BME280;20721;47.402;8.550;2023-07-09T08:58:25;96566;;;34.01;30.09
2711;BME280;20721;47.402;8.550;2023-07-09T09:00:29;96574;;;33.94;30.65
2711;BME280;20721;47.402;8.550;2023-07-09T09:02:29;96572;;;34.07;30.26
2711;BME280;20721;47.402;8.550;2023-07-09T09:04:27;96578;;;33.99;29.71
2711;BME280;20721;47.402;8.550;2023-07-09T09:06:26;96576;;;33.95;30.32
2711;BME280;20721;47.402;8.550;2023-07-09T09:08:29;96582;;;34.07;29.65
2711;BME280;20721;47.402;8.550;2023-07-09T09:12:43;96581;;;34.07;29.55
2711;BME280;20721;47.402;8.550;2023-07-09T09:14:27;96582;;;34.26;29.29
2711;BME280;20721;47.402;8.550;2023-07-09T09:16:28;96580;;;34.54;29.70
2711;BME280;20721;47.402;8.550;2023-07-09T09:18:27;96578;;;34.47;29.25
2711;BME280;20721;47.402;8.550;2023-07-09T09:20:26;96575;;;34.52;29.35
2711;BME280;20721;47.402;8.550;2023-07-09T09:22:27;96580;;;34.66;29.88
2711;BME280;20721;47.402;8.550;2023-07-09T09:24:27;96579;;;34.87;29.54
2711;BME280;20721;47.402;8.550;2023-07-09T09:26:28;96575;;;35.07;29.08
2711;BME280;20721;47.402;8.550;2023-07-09T09:28:26;96578;;;35.03;28.31
2711;BME280;20721;47.402;8.550;2023-07-09T09:30:25;96575;;;35.03;28.31
2711;BME280;20721;47.402;8.550;2023-07-09T09:32:27;96573;;;35.12;28.68
2711;BME280;20721;47.402;8.550;2023-07-09T09:34:26;96574;;;34.98;28.53
2711;BME280;20721;47.402;8.550;2023-07-09T09:36:25;96574;;;35.14;29.09
2711;BME280;20721;47.402;8.550;2023-07-09T09:38:25;96576;;;35.32;28.70
2711;BME280;20721;47.402;8.550;2023-07-09T09:40:26;96573;;;35.38;28.80
2711;BME280;20721;47.402;8.550;2023-07-09T09:43:31;96567;;;35.26;27.39
2711;BME280;20721;47.402;8.550;2023-07-09T09:45:27;96569;;;34.85;27.70
2711;BME280;20721;47.402;8.550;2023-07-09T09:47:26;96568;;;34.81;27.95
2711;BME280;20721;47.402;8.550;2023-07-09T09:49:25;96567;;;34.86;28.51
2711;BME280;20721;47.402;8.550;2023-07-09T09:51:26;96566;;;34.96;28.07
2711;BME280;20721;47.402;8.550;2023-07-09T09:53:25;96569;;;34.98;27.95
2711;BME280;20721;47.402;8.550;2023-07-09T09:55:28;96568;;;35.13;28.04
2711;BME280;20721;47.402;8.550;2023-07-09T09:57:25;96571;;;35.37;27.43
2711;BME280;20721;47.402;8.550;2023-07-09T09:59:27;96568;;;35.16;27.10
2711;BME280;20721;47.402;8.550;2023-07-09T10:01:27;96564;;;35.18;27.53
2711;BME280;20721;47.402;8.550;2023-07-09T10:03:33;96567;;;35.42;27.45
2711;BME280;20721;47.402;8.550;2023-07-09T10:05:27;96568;;;35.45;26.79
2711;BME280;20721;47.402;8.550;2023-07-09T10:09:43;96570;;;35.16;26.83
2711;BME280;20721;47.402;8.550;2023-07-09T10:11:31;96569;;;34.90;27.44
2711;BME280;20721;47.402;8.550;2023-07-09T10:13:27;96563;;;34.93;27.29
2711;BME280;20721;47.402;8.550;2023-07-09T10:19:30;96561;;;35.53;27.08
2711;BME280;20721;47.402;8.550;2023-07-09T10:21:28;96557;;;35.78;26.63
2711;BME280;20721;47.402;8.550;2023-07-09T10:23:27;96559;;;35.94;26.48
2711;BME280;20721;47.402;8.550;2023-07-09T10:25:30;96555;;;36.05;26.83
2711;BME280;20721;47.402;8.550;2023-07-09T10:27:29;96555;;;36.17;26.19
2711;BME280;20721;47.402;8.550;2023-07-09T10:29:32;96551;;;36.25;26.19
2711;BME280;20721;47.402;8.550;2023-07-09T10:40:35;96544;;;36.03;24.92
2711;BME280;20721;47.402;8.550;2023-07-09T10:42:28;96536;;;35.85;25.25
2711;BME280;20721;47.402;8.550;2023-07-09T10:44:28;96534;;;35.92;25.26
2711;BME280;20721;47.402;8.550;2023-07-09T10:46:26;96526;;;35.95;25.28
2711;BME280;20721;47.402;8.550;2023-07-09T10:48:42;96529;;;36.15;25.67
2711;BME280;20721;47.402;8.550;2023-07-09T10:50:28;96526;;;36.32;25.48
2711;BME280;20721;47.402;8.550;2023-07-09T10:52:27;96525;;;36.46;25.37
2711;BME280;20721;47.402;8.550;2023-07-09T10:54:29;96524;;;36.49;25.45
2711;BME280;20721;47.402;8.550;2023-07-09T10:56:26;96523;;;36.49;25.69
2711;BME280;20721;47.402;8.550;2023-07-09T10:58:29;96525;;;36.45;25.50
2711;BME280;20721;47.402;8.550;2023-07-09T11:00:34;96521;;;36.38;25.83
2711;BME280;20721;47.402;8.550;2023-07-09T11:02:26;96520;;;36.38;25.90
2711;BME280;20721;47.402;8.550;2023-07-09T11:09:26;96516;;;36.43;26.28
2711;BME280;20721;47.402;8.550;2023-07-09T11:16:27;96517;;;36.41;25.29
2711;BME280;20721;47.402;8.550;2023-07-09T11:18:29;96511;;;36.43;25.53
2711;BME280;20721;47.402;8.550;2023-07-09T11:22:35;96505;;;36.65;25.22
2711;BME280;20721;47.402;8.550;2023-07-09T11:26:27;96506;;;37.04;25.00
2711;BME280;20721;47.402;8.550;2023-07-09T11:28:34;96505;;;37.12;25.17
2711;BME280;20721;47.402;8.550;2023-07-09T11:30:26;96503;;;37.06;24.81
2711;BME280;20721;47.402;8.550;2023-07-09T11:32:26;96507;;;36.91;23.72
2711;BME280;20721;47.402;8.550;2023-07-09T11:34:27;96503;;;36.70;25.00
2711;BME280;20721;47.402;8.550;2023-07-09T11:36:27;96509;;;36.29;25.33
2711;BME280;20721;47.402;8.550;2023-07-09T11:38:25;96508;;;36.28;25.77
2711;BME280;20721;47.402;8.550;2023-07-09T11:40:25;96511;;;36.15;24.92
2711;BME280;20721;47.402;8.550;2023-07-09T11:44:26;96510;;;35.84;25.22
2711;BME280;20721;47.402;8.550;2023-07-09T11:46:26;96507;;;35.77;25.53
2711;BME280;20721;47.402;8.550;2023-07-09T11:48:26;96509;;;35.72;25.96
2711;BME280;20721;47.402;8.550;2023-07-09T11:50:27;96508;;;35.43;25.19
2711;BME280;20721;47.402;8.550;2023-07-09T11:55:27;96501;;;35.66;25.62
2711;BME280;20721;47.402;8.550;2023-07-09T11:57:25;96499;;;35.83;26.00
2711;BME280;20721;47.402;8.550;2023-07-09T11:59:25;96498;;;35.99;26.82
2711;BME280;20721;47.402;8.550;2023-07-09T12:01:27;96499;;;36.12;27.65
2711;BME280;20721;47.402;8.550;2023-07-09T12:03:27;96499;;;36.20;27.82
2711;BME280;20721;47.402;8.550;2023-07-09T12:05:26;96504;;;36.17;27.16
2711;BME280;20721;47.402;8.550;2023-07-09T12:07:26;96502;;;36.14;25.17
2711;BME280;20721;47.402;8.550;2023-07-09T12:09:29;96502;;;36.11;26.81
2711;BME280;20721;47.402;8.550;2023-07-09T12:11:27;96499;;;36.12;26.13
2711;BME280;20721;47.402;8.550;2023-07-09T12:13:26;96497;;;36.07;26.88
2711;BME280;20721;47.402;8.550;2023-07-09T12:15:26;96496;;;36.10;26.12
2711;BME280;20721;47.402;8.550;2023-07-09T12:17:26;96494;;;36.14;26.23
2711;BME280;20721;47.402;8.550;2023-07-09T12:19:28;96495;;;36.15;26.55
2711;BME280;20721;47.402;8.550;2023-07-09T12:21:26;96492;;;36.00;26.15
2711;BME280;20721;47.402;8.550;2023-07-09T12:23:27;96487;;;35.65;25.52
2711;BME280;20721;47.402;8.550;2023-07-09T12:25:30;96484;;;35.77;27.00
2711;BME280;20721;47.402;8.550;2023-07-09T12:27:26;96483;;;36.05;26.77
2711;BME280;20721;47.402;8.550;2023-07-09T12:29:26;96477;;;36.28;26.46
2711;BME280;20721;47.402;8.550;2023-07-09T12:31:27;96477;;;36.31;23.41
2711;BME280;20721;47.402;8.550;2023-07-09T12:33:26;96474;;;36.33;24.98
2711;BME280;20721;47.402;8.550;2023-07-09T12:36:26;96474;;;36.39;25.11
2711;BME280;20721;47.402;8.550;2023-07-09T12:38:27;96473;;;36.28;24.75
2711;BME280;20721;47.402;8.550;2023-07-09T12:40:27;96472;;;36.36;25.06
2711;BME280;20721;47.402;8.550;2023-07-09T12:42:30;96466;;;36.44;25.05